Clearfield, Iowa
Current Conditions -  °F | °C
As of 9:55 PM on Sunday 23 Nov 2014 (Local Time) from KCSQ Reporting Station
Overcast Overcast  
Wind Chill: 27°   Ceiling: 7500
Heat Index: 37°   Visibility: 10mi
Dew Point: 32°   Wind: 22mph
Humidity: 81%   Direction: 330°NNW
Pressure: 29.42"   Gusts: 32mph
Location:  40.8°N, 94.48°W
Report Text: KCSQ 240355Z AUTO 33019G28KT 10SM SCT065 OVC075 03/00 A2942 RMK AO2
Loading
Personal Weather Stations






























Interactive Weather Map New forecast layout! Learn more

10-Day Weather Forecast

Advertisements
Track Severe Weather on mobile